Terminal Aerodrome Forecast
Issued by NWS

Home | Current Version | Previous Version | Text Only | Print | Product List | Glossary Off
Versions: 1 2 3 4 5 6 7 8 9 10 11 12 13 14 15 16 17 18 19 20

000
FTUS43 KOAX 201426 AAA
TAFCDR
TAF AMD
KCDR 201426Z 2014/2112 VRB05KT P6SM OVC004
     FM201500 05007KT P6SM BKN008 OVC015
     FM201800 05003KT P6SM OVC025=

USA.gov is the U.S. government's official web portal to all federal, state and local government web resources and services.